Decoded Metar for UKDD (DNEPROPETROVSK in UKRAINE) (IATA:DNK) | Meteo·Mobile Aviation Weather
aviador You're here:

UKDD Decoded Metar

DNEPROPETROVSK in UKRAINE
Report Time2018-11-12 17:30:00
UTC Time2018-11-12 17:36:12
Flight Rules mvfr MVFR
Wind070° at 14 kt
W.Decomp.*RWY 08: 13.4 kt HW 4.1 kt LCW
W.Rank070° ranks 6
Current wind is above 070° avg. (9.5)
Visibility9999 m
Phenomena:N/A
Clouds:Broken 026 Hf
Expected CloudBase > 2,000 ft AGL from Temp-Dew spread
Ceiling2,600 ft
Temp-3°C (ISA -17)
Dew Point-8°C (69% RH)
AAT-10.9°C
QNH1038 hPa
Density Alt-2,405 ft
Elevation489 ft
Report Wrong Elevation
Raw Report
UKDD 121730Z 07007MPS 9999 BKN026 M03/M08 Q1038 R08/090070
NOSIG=

Extra information for UKDD:More info

Metar Taf Metar & Taf Last 4 Metars F.Rules Stats Wind Profile Meteogram Temp Stats Airport Information Weather charts Add Link Nearby VenuesMetar ALERT Operation Metar Decoded Social comments